sensor_id;sensor_type;location;lat;lon;timestamp;P1;durP1;ratioP1;P2;durP2;ratioP2
14088;SDS011;7120;52.890;6.040;2022-08-19T00:02:20;17.60;;;12.33;;
14088;SDS011;7120;52.890;6.040;2022-08-19T00:04:46;17.47;;;11.93;;
14088;SDS011;7120;52.890;6.040;2022-08-19T00:07:13;16.10;;;12.27;;
14088;SDS011;7120;52.890;6.040;2022-08-19T00:09:39;15.90;;;12.17;;
14088;SDS011;7120;52.890;6.040;2022-08-19T00:12:04;15.47;;;12.30;;
14088;SDS011;7120;52.890;6.040;2022-08-19T00:14:30;17.53;;;12.67;;
14088;SDS011;7120;52.890;6.040;2022-08-19T00:16:59;15.70;;;11.57;;
14088;SDS011;7120;52.890;6.040;2022-08-19T00:19:25;15.63;;;11.87;;
14088;SDS011;7120;52.890;6.040;2022-08-19T00:21:51;17.50;;;11.97;;
14088;SDS011;7120;52.890;6.040;2022-08-19T00:24:17;16.30;;;12.07;;
14088;SDS011;7120;52.890;6.040;2022-08-19T00:26:44;19.93;;;13.40;;
14088;SDS011;7120;52.890;6.040;2022-08-19T00:29:11;19.10;;;12.70;;
14088;SDS011;7120;52.890;6.040;2022-08-19T00:31:38;17.40;;;13.90;;
14088;SDS011;7120;52.890;6.040;2022-08-19T00:34:04;19.90;;;13.83;;
14088;SDS011;7120;52.890;6.040;2022-08-19T00:36:29;16.27;;;12.00;;
14088;SDS011;7120;52.890;6.040;2022-08-19T00:38:56;19.80;;;12.67;;
14088;SDS011;7120;52.890;6.040;2022-08-19T00:41:23;16.93;;;12.50;;
14088;SDS011;7120;52.890;6.040;2022-08-19T00:44:00;22.93;;;13.20;;
14088;SDS011;7120;52.890;6.040;2022-08-19T00:46:28;18.33;;;13.13;;
14088;SDS011;7120;52.890;6.040;2022-08-19T00:48:54;17.77;;;13.37;;
14088;SDS011;7120;52.890;6.040;2022-08-19T00:51:21;22.17;;;13.23;;
14088;SDS011;7120;52.890;6.040;2022-08-19T00:53:48;19.83;;;13.70;;
14088;SDS011;7120;52.890;6.040;2022-08-19T00:56:15;20.87;;;13.53;;
14088;SDS011;7120;52.890;6.040;2022-08-19T00:58:41;22.23;;;13.37;;
14088;SDS011;7120;52.890;6.040;2022-08-19T01:01:06;20.43;;;14.03;;
14088;SDS011;7120;52.890;6.040;2022-08-19T01:03:33;18.57;;;13.03;;
14088;SDS011;7120;52.890;6.040;2022-08-19T01:05:58;17.20;;;12.40;;
14088;SDS011;7120;52.890;6.040;2022-08-19T01:08:25;18.87;;;12.07;;
14088;SDS011;7120;52.890;6.040;2022-08-19T01:10:52;17.57;;;12.07;;
14088;SDS011;7120;52.890;6.040;2022-08-19T01:13:22;18.43;;;12.17;;
14088;SDS011;7120;52.890;6.040;2022-08-19T01:15:55;18.57;;;12.00;;
14088;SDS011;7120;52.890;6.040;2022-08-19T01:18:26;22.10;;;12.80;;
14088;SDS011;7120;52.890;6.040;2022-08-19T01:20:54;22.43;;;13.40;;
14088;SDS011;7120;52.890;6.040;2022-08-19T01:23:23;22.80;;;13.20;;
14088;SDS011;7120;52.890;6.040;2022-08-19T01:26:07;25.90;;;14.30;;
14088;SDS011;7120;52.890;6.040;2022-08-19T01:28:40;24.37;;;14.50;;
14088;SDS011;7120;52.890;6.040;2022-08-19T01:31:07;22.77;;;13.20;;
14088;SDS011;7120;52.890;6.040;2022-08-19T01:33:40;20.13;;;13.70;;
14088;SDS011;7120;52.890;6.040;2022-08-19T01:36:07;24.70;;;14.80;;
14088;SDS011;7120;52.890;6.040;2022-08-19T01:38:36;28.43;;;14.73;;
14088;SDS011;7120;52.890;6.040;2022-08-19T01:41:03;23.83;;;15.07;;
14088;SDS011;7120;52.890;6.040;2022-08-19T01:43:29;26.73;;;15.80;;
14088;SDS011;7120;52.890;6.040;2022-08-19T01:45:54;26.07;;;15.13;;
14088;SDS011;7120;52.890;6.040;2022-08-19T01:48:20;25.07;;;14.43;;
14088;SDS011;7120;52.890;6.040;2022-08-19T01:50:45;24.83;;;14.30;;
14088;SDS011;7120;52.890;6.040;2022-08-19T01:53:12;23.10;;;14.47;;
14088;SDS011;7120;52.890;6.040;2022-08-19T01:55:39;26.73;;;14.17;;
14088;SDS011;7120;52.890;6.040;2022-08-19T01:58:06;28.60;;;15.83;;
14088;SDS011;7120;52.890;6.040;2022-08-19T02:00:36;24.10;;;14.37;;
14088;SDS011;7120;52.890;6.040;2022-08-19T02:03:02;19.97;;;13.70;;
14088;SDS011;7120;52.890;6.040;2022-08-19T02:05:27;24.37;;;14.10;;
14088;SDS011;7120;52.890;6.040;2022-08-19T02:07:54;29.63;;;14.70;;
14088;SDS011;7120;52.890;6.040;2022-08-19T02:10:21;35.40;;;16.47;;
14088;SDS011;7120;52.890;6.040;2022-08-19T02:12:49;27.13;;;15.40;;
14088;SDS011;7120;52.890;6.040;2022-08-19T02:15:15;23.53;;;14.03;;
14088;SDS011;7120;52.890;6.040;2022-08-19T02:17:41;24.07;;;13.07;;
14088;SDS011;7120;52.890;6.040;2022-08-19T02:20:07;18.17;;;11.57;;
14088;SDS011;7120;52.890;6.040;2022-08-19T02:22:33;19.40;;;11.50;;
14088;SDS011;7120;52.890;6.040;2022-08-19T02:24:59;22.57;;;11.33;;
14088;SDS011;7120;52.890;6.040;2022-08-19T02:27:25;22.60;;;12.73;;
14088;SDS011;7120;52.890;6.040;2022-08-19T02:29:50;22.40;;;12.40;;
14088;SDS011;7120;52.890;6.040;2022-08-19T02:32:16;19.43;;;11.10;;
14088;SDS011;7120;52.890;6.040;2022-08-19T02:34:44;20.23;;;11.97;;
14088;SDS011;7120;52.890;6.040;2022-08-19T02:37:10;25.90;;;13.47;;
14088;SDS011;7120;52.890;6.040;2022-08-19T02:39:55;28.17;;;13.20;;
14088;SDS011;7120;52.890;6.040;2022-08-19T02:42:20;23.87;;;13.10;;
14088;SDS011;7120;52.890;6.040;2022-08-19T02:44:46;26.80;;;13.37;;
14088;SDS011;7120;52.890;6.040;2022-08-19T02:47:11;27.80;;;13.23;;
14088;SDS011;7120;52.890;6.040;2022-08-19T02:49:38;23.53;;;13.40;;
14088;SDS011;7120;52.890;6.040;2022-08-19T02:52:03;24.83;;;12.17;;
14088;SDS011;7120;52.890;6.040;2022-08-19T02:54:29;25.10;;;13.10;;
14088;SDS011;7120;52.890;6.040;2022-08-19T02:56:54;26.63;;;11.60;;
14088;SDS011;7120;52.890;6.040;2022-08-19T02:59:20;30.07;;;14.57;;
14088;SDS011;7120;52.890;6.040;2022-08-19T03:01:45;28.23;;;14.73;;
14088;SDS011;7120;52.890;6.040;2022-08-19T03:04:12;24.93;;;13.53;;
14088;SDS011;7120;52.890;6.040;2022-08-19T03:06:41;27.83;;;13.33;;
14088;SDS011;7120;52.890;6.040;2022-08-19T03:09:08;29.97;;;15.03;;
14088;SDS011;7120;52.890;6.040;2022-08-19T03:11:35;32.70;;;14.63;;
14088;SDS011;7120;52.890;6.040;2022-08-19T03:14:01;38.90;;;16.33;;
14088;SDS011;7120;52.890;6.040;2022-08-19T03:16:29;41.63;;;16.30;;
14088;SDS011;7120;52.890;6.040;2022-08-19T03:18:57;36.43;;;16.33;;
14088;SDS011;7120;52.890;6.040;2022-08-19T03:21:26;31.47;;;15.63;;
14088;SDS011;7120;52.890;6.040;2022-08-19T03:23:54;31.87;;;14.67;;
14088;SDS011;7120;52.890;6.040;2022-08-19T03:26:21;33.37;;;14.50;;
14088;SDS011;7120;52.890;6.040;2022-08-19T03:28:46;31.07;;;14.73;;
14088;SDS011;7120;52.890;6.040;2022-08-19T03:31:14;39.30;;;15.60;;
14088;SDS011;7120;52.890;6.040;2022-08-19T03:33:42;26.73;;;15.27;;
14088;SDS011;7120;52.890;6.040;2022-08-19T03:36:13;39.90;;;17.53;;
14088;SDS011;7120;52.890;6.040;2022-08-19T03:38:42;35.07;;;16.40;;
14088;SDS011;7120;52.890;6.040;2022-08-19T03:41:11;35.33;;;16.50;;
14088;SDS011;7120;52.890;6.040;2022-08-19T03:43:40;34.20;;;16.80;;
14088;SDS011;7120;52.890;6.040;2022-08-19T03:46:10;32.43;;;15.53;;
14088;SDS011;7120;52.890;6.040;2022-08-19T03:48:39;42.30;;;18.77;;
14088;SDS011;7120;52.890;6.040;2022-08-19T03:51:06;30.23;;;15.20;;
14088;SDS011;7120;52.890;6.040;2022-08-19T03:53:33;35.77;;;17.03;;
14088;SDS011;7120;52.890;6.040;2022-08-19T03:55:59;36.73;;;15.57;;
14088;SDS011;7120;52.890;6.040;2022-08-19T03:58:25;34.93;;;16.87;;
14088;SDS011;7120;52.890;6.040;2022-08-19T04:00:50;38.10;;;14.80;;
14088;SDS011;7120;52.890;6.040;2022-08-19T04:03:16;40.30;;;16.60;;
14088;SDS011;7120;52.890;6.040;2022-08-19T04:05:43;35.67;;;15.83;;
14088;SDS011;7120;52.890;6.040;2022-08-19T04:08:09;35.37;;;15.73;;
14088;SDS011;7120;52.890;6.040;2022-08-19T04:10:37;36.10;;;15.53;;
14088;SDS011;7120;52.890;6.040;2022-08-19T04:13:04;35.17;;;15.30;;
14088;SDS011;7120;52.890;6.040;2022-08-19T04:15:31;39.43;;;15.70;;
14088;SDS011;7120;52.890;6.040;2022-08-19T04:18:00;37.67;;;15.30;;
14088;SDS011;7120;52.890;6.040;2022-08-19T04:20:26;44.23;;;16.17;;
14088;SDS011;7120;52.890;6.040;2022-08-19T04:22:51;51.17;;;16.67;;
14088;SDS011;7120;52.890;6.040;2022-08-19T04:25:17;46.43;;;16.30;;
14088;SDS011;7120;52.890;6.040;2022-08-19T04:27:42;37.27;;;14.80;;
14088;SDS011;7120;52.890;6.040;2022-08-19T04:30:11;28.73;;;12.90;;
14088;SDS011;7120;52.890;6.040;2022-08-19T04:32:37;40.73;;;14.43;;
14088;SDS011;7120;52.890;6.040;2022-08-19T04:35:04;41.33;;;14.47;;
14088;SDS011;7120;52.890;6.040;2022-08-19T04:37:30;41.33;;;14.10;;
14088;SDS011;7120;52.890;6.040;2022-08-19T04:39:58;31.27;;;14.07;;
14088;SDS011;7120;52.890;6.040;2022-08-19T04:42:42;31.70;;;13.67;;
14088;SDS011;7120;52.890;6.040;2022-08-19T04:45:09;34.97;;;13.90;;
14088;SDS011;7120;52.890;6.040;2022-08-19T04:47:37;36.87;;;15.20;;
14088;SDS011;7120;52.890;6.040;2022-08-19T04:50:02;33.03;;;14.90;;
14088;SDS011;7120;52.890;6.040;2022-08-19T04:52:28;35.10;;;15.23;;
14088;SDS011;7120;52.890;6.040;2022-08-19T04:54:55;31.40;;;13.43;;
14088;SDS011;7120;52.890;6.040;2022-08-19T04:57:21;31.80;;;14.03;;
14088;SDS011;7120;52.890;6.040;2022-08-19T04:59:46;29.30;;;13.93;;
14088;SDS011;7120;52.890;6.040;2022-08-19T05:02:11;42.37;;;15.97;;
14088;SDS011;7120;52.890;6.040;2022-08-19T05:04:37;30.07;;;14.53;;
14088;SDS011;7120;52.890;6.040;2022-08-19T05:07:04;42.27;;;16.83;;
14088;SDS011;7120;52.890;6.040;2022-08-19T05:09:30;48.77;;;17.73;;
14088;SDS011;7120;52.890;6.040;2022-08-19T05:11:56;49.43;;;19.07;;
14088;SDS011;7120;52.890;6.040;2022-08-19T05:14:21;45.53;;;18.77;;
14088;SDS011;7120;52.890;6.040;2022-08-19T05:16:47;42.53;;;17.60;;
14088;SDS011;7120;52.890;6.040;2022-08-19T05:19:12;41.53;;;18.33;;
14088;SDS011;7120;52.890;6.040;2022-08-19T05:21:56;60.37;;;23.07;;
14088;SDS011;7120;52.890;6.040;2022-08-19T05:24:41;59.70;;;22.93;;
14088;SDS011;7120;52.890;6.040;2022-08-19T05:27:06;51.37;;;20.87;;
14088;SDS011;7120;52.890;6.040;2022-08-19T05:29:32;73.50;;;26.83;;
14088;SDS011;7120;52.890;6.040;2022-08-19T05:31:59;82.23;;;29.93;;
14088;SDS011;7120;52.890;6.040;2022-08-19T05:34:26;84.40;;;29.77;;
14088;SDS011;7120;52.890;6.040;2022-08-19T05:36:56;67.17;;;25.37;;
14088;SDS011;7120;52.890;6.040;2022-08-19T05:39:23;70.60;;;28.33;;
14088;SDS011;7120;52.890;6.040;2022-08-19T05:41:53;73.87;;;27.23;;
14088;SDS011;7120;52.890;6.040;2022-08-19T05:44:24;70.57;;;29.50;;
14088;SDS011;7120;52.890;6.040;2022-08-19T05:46:51;63.47;;;27.57;;
14088;SDS011;7120;52.890;6.040;2022-08-19T05:49:18;73.27;;;28.43;;
14088;SDS011;7120;52.890;6.040;2022-08-19T05:51:45;75.77;;;28.77;;
14088;SDS011;7120;52.890;6.040;2022-08-19T05:54:11;65.10;;;28.13;;
14088;SDS011;7120;52.890;6.040;2022-08-19T05:56:38;64.67;;;28.03;;
14088;SDS011;7120;52.890;6.040;2022-08-19T05:59:06;66.50;;;27.83;;
14088;SDS011;7120;52.890;6.040;2022-08-19T06:01:34;63.03;;;27.27;;
14088;SDS011;7120;52.890;6.040;2022-08-19T06:04:01;67.00;;;28.77;;
14088;SDS011;7120;52.890;6.040;2022-08-19T06:06:27;53.80;;;28.47;;
14088;SDS011;7120;52.890;6.040;2022-08-19T06:08:53;61.93;;;27.77;;
14088;SDS011;7120;52.890;6.040;2022-08-19T06:11:31;57.47;;;27.80;;
14088;SDS011;7120;52.890;6.040;2022-08-19T06:13:57;61.10;;;28.77;;
14088;SDS011;7120;52.890;6.040;2022-08-19T06:16:26;59.77;;;30.63;;
14088;SDS011;7120;52.890;6.040;2022-08-19T06:18:53;63.90;;;30.50;;
14088;SDS011;7120;52.890;6.040;2022-08-19T06:21:20;54.10;;;29.00;;
14088;SDS011;7120;52.890;6.040;2022-08-19T06:23:47;57.47;;;31.67;;
14088;SDS011;7120;52.890;6.040;2022-08-19T06:26:14;57.63;;;30.77;;
14088;SDS011;7120;52.890;6.040;2022-08-19T06:28:40;48.77;;;29.67;;
14088;SDS011;7120;52.890;6.040;2022-08-19T06:31:11;47.73;;;30.37;;
14088;SDS011;7120;52.890;6.040;2022-08-19T06:33:41;52.27;;;30.17;;
14088;SDS011;7120;52.890;6.040;2022-08-19T06:36:08;47.63;;;29.63;;
14088;SDS011;7120;52.890;6.040;2022-08-19T06:38:41;39.07;;;27.83;;
14088;SDS011;7120;52.890;6.040;2022-08-19T06:41:07;40.50;;;27.33;;
14088;SDS011;7120;52.890;6.040;2022-08-19T06:43:33;33.40;;;27.00;;
14088;SDS011;7120;52.890;6.040;2022-08-19T06:45:58;31.50;;;24.93;;
14088;SDS011;7120;52.890;6.040;2022-08-19T06:48:23;37.13;;;25.77;;
14088;SDS011;7120;52.890;6.040;2022-08-19T06:50:49;33.13;;;24.97;;
14088;SDS011;7120;52.890;6.040;2022-08-19T06:53:16;30.33;;;25.17;;
14088;SDS011;7120;52.890;6.040;2022-08-19T06:55:44;26.90;;;23.40;;
14088;SDS011;7120;52.890;6.040;2022-08-19T06:58:10;25.37;;;22.77;;
14088;SDS011;7120;52.890;6.040;2022-08-19T07:00:35;26.30;;;23.60;;
14088;SDS011;7120;52.890;6.040;2022-08-19T07:03:01;25.30;;;22.60;;
14088;SDS011;7120;52.890;6.040;2022-08-19T07:05:27;24.73;;;22.20;;
14088;SDS011;7120;52.890;6.040;2022-08-19T07:07:53;23.30;;;20.97;;
14088;SDS011;7120;52.890;6.040;2022-08-19T07:10:18;24.50;;;21.90;;
14088;SDS011;7120;52.890;6.040;2022-08-19T07:12:44;25.03;;;21.30;;
14088;SDS011;7120;52.890;6.040;2022-08-19T07:15:10;24.07;;;21.53;;
14088;SDS011;7120;52.890;6.040;2022-08-19T07:17:36;24.97;;;22.47;;
14088;SDS011;7120;52.890;6.040;2022-08-19T07:20:03;24.00;;;21.50;;
14088;SDS011;7120;52.890;6.040;2022-08-19T07:22:32;23.17;;;20.93;;
14088;SDS011;7120;52.890;6.040;2022-08-19T07:25:00;22.87;;;20.67;;
14088;SDS011;7120;52.890;6.040;2022-08-19T07:27:28;23.13;;;20.73;;
14088;SDS011;7120;52.890;6.040;2022-08-19T07:29:53;23.30;;;20.90;;
14088;SDS011;7120;52.890;6.040;2022-08-19T07:32:19;23.03;;;20.83;;
14088;SDS011;7120;52.890;6.040;2022-08-19T07:34:44;22.73;;;20.53;;
14088;SDS011;7120;52.890;6.040;2022-08-19T07:37:10;22.40;;;20.20;;
14088;SDS011;7120;52.890;6.040;2022-08-19T07:39:37;21.93;;;19.80;;
14088;SDS011;7120;52.890;6.040;2022-08-19T07:42:04;22.70;;;20.63;;
14088;SDS011;7120;52.890;6.040;2022-08-19T07:44:33;22.03;;;20.03;;
14088;SDS011;7120;52.890;6.040;2022-08-19T07:46:59;22.93;;;20.93;;
14088;SDS011;7120;52.890;6.040;2022-08-19T07:49:25;24.80;;;22.60;;
14088;SDS011;7120;52.890;6.040;2022-08-19T07:51:52;25.20;;;22.60;;
14088;SDS011;7120;52.890;6.040;2022-08-19T07:54:24;26.30;;;23.97;;
14088;SDS011;7120;52.890;6.040;2022-08-19T07:56:51;26.73;;;24.23;;
14088;SDS011;7120;52.890;6.040;2022-08-19T07:59:17;26.90;;;24.50;;
14088;SDS011;7120;52.890;6.040;2022-08-19T08:01:45;25.70;;;23.40;;
14088;SDS011;7120;52.890;6.040;2022-08-19T08:04:11;25.17;;;22.87;;
14088;SDS011;7120;52.890;6.040;2022-08-19T08:06:55;26.57;;;24.07;;
14088;SDS011;7120;52.890;6.040;2022-08-19T08:09:40;26.57;;;24.23;;
14088;SDS011;7120;52.890;6.040;2022-08-19T08:12:09;26.30;;;23.90;;
14088;SDS011;7120;52.890;6.040;2022-08-19T08:14:37;26.57;;;24.27;;
14088;SDS011;7120;52.890;6.040;2022-08-19T08:17:06;25.47;;;23.17;;
14088;SDS011;7120;52.890;6.040;2022-08-19T08:19:32;25.30;;;23.17;;
14088;SDS011;7120;52.890;6.040;2022-08-19T08:21:58;26.03;;;23.53;;
14088;SDS011;7120;52.890;6.040;2022-08-19T08:24:26;26.47;;;24.03;;
14088;SDS011;7120;52.890;6.040;2022-08-19T08:26:53;24.40;;;22.20;;
14088;SDS011;7120;52.890;6.040;2022-08-19T08:29:18;25.13;;;22.93;;
14088;SDS011;7120;52.890;6.040;2022-08-19T08:31:44;25.70;;;23.53;;
14088;SDS011;7120;52.890;6.040;2022-08-19T08:34:10;25.03;;;22.93;;
14088;SDS011;7120;52.890;6.040;2022-08-19T08:36:43;25.80;;;23.70;;
14088;SDS011;7120;52.890;6.040;2022-08-19T08:39:11;24.97;;;22.90;;
14088;SDS011;7120;52.890;6.040;2022-08-19T08:44:32;24.97;;;22.90;;
14088;SDS011;7120;52.890;6.040;2022-08-19T08:47:04;24.92;;;22.75;;
14088;SDS011;7120;52.890;6.040;2022-08-19T08:49:41;23.50;;;21.50;;
14088;SDS011;7120;52.890;6.040;2022-08-19T08:52:21;24.42;;;22.42;;
14088;SDS011;7120;52.890;6.040;2022-08-19T08:54:48;23.95;;;21.85;;
14088;SDS011;7120;52.890;6.040;2022-08-19T08:57:23;23.92;;;21.77;;
14088;SDS011;7120;52.890;6.040;2022-08-19T08:59:50;22.77;;;20.67;;
14088;SDS011;7120;52.890;6.040;2022-08-19T09:02:19;24.30;;;22.20;;
14088;SDS011;7120;52.890;6.040;2022-08-19T09:04:45;23.15;;;21.05;;
14088;SDS011;7120;52.890;6.040;2022-08-19T09:09:57;22.23;;;20.45;;
14088;SDS011;7120;52.890;6.040;2022-08-19T09:12:40;22.15;;;20.15;;
14088;SDS011;7120;52.890;6.040;2022-08-19T09:15:20;18.92;;;17.33;;
14088;SDS011;7120;52.890;6.040;2022-08-19T09:17:52;21.05;;;19.33;;
14088;SDS011;7120;52.890;6.040;2022-08-19T09:20:19;20.90;;;19.00;;
14088;SDS011;7120;52.890;6.040;2022-08-19T09:22:46;17.80;;;16.17;;
14088;SDS011;7120;52.890;6.040;2022-08-19T09:25:14;19.85;;;18.25;;
14088;SDS011;7120;52.890;6.040;2022-08-19T09:27:43;18.23;;;16.60;;
14088;SDS011;7120;52.890;6.040;2022-08-19T09:30:31;17.50;;;16.02;;
14088;SDS011;7120;52.890;6.040;2022-08-19T09:32:56;17.42;;;15.80;;
14088;SDS011;7120;52.890;6.040;2022-08-19T09:35:23;17.13;;;15.43;;
14088;SDS011;7120;52.890;6.040;2022-08-19T09:37:50;14.95;;;13.02;;
14088;SDS011;7120;52.890;6.040;2022-08-19T09:40:16;14.38;;;13.05;;
14088;SDS011;7120;52.890;6.040;2022-08-19T09:42:43;14.93;;;13.55;;
14088;SDS011;7120;52.890;6.040;2022-08-19T09:45:11;14.60;;;13.10;;
14088;SDS011;7120;52.890;6.040;2022-08-19T09:47:37;15.75;;;14.25;;
14088;SDS011;7120;52.890;6.040;2022-08-19T09:50:04;16.88;;;15.25;;
14088;SDS011;7120;52.890;6.040;2022-08-19T09:52:32;14.48;;;13.07;;
14088;SDS011;7120;52.890;6.040;2022-08-19T09:54:57;14.95;;;13.55;;
14088;SDS011;7120;52.890;6.040;2022-08-19T09:57:22;14.77;;;13.30;;
14088;SDS011;7120;52.890;6.040;2022-08-19T09:59:48;15.93;;;14.43;;
14088;SDS011;7120;52.890;6.040;2022-08-19T10:02:13;16.15;;;14.65;;
14088;SDS011;7120;52.890;6.040;2022-08-19T10:04:38;13.38;;;12.13;;
14088;SDS011;7120;52.890;6.040;2022-08-19T10:07:22;12.80;;;11.70;;
14088;SDS011;7120;52.890;6.040;2022-08-19T10:09:48;14.10;;;12.80;;
14088;SDS011;7120;52.890;6.040;2022-08-19T10:12:13;14.52;;;13.23;;
14088;SDS011;7120;52.890;6.040;2022-08-19T10:14:40;13.45;;;12.00;;
14088;SDS011;7120;52.890;6.040;2022-08-19T10:17:06;15.32;;;12.52;;
14088;SDS011;7120;52.890;6.040;2022-08-19T10:19:31;9.70;;;8.75;;
14088;SDS011;7120;52.890;6.040;2022-08-19T10:22:02;14.02;;;12.73;;
14088;SDS011;7120;52.890;6.040;2022-08-19T10:24:29;16.25;;;14.65;;
14088;SDS011;7120;52.890;6.040;2022-08-19T10:26:55;21.13;;;19.13;;
14088;SDS011;7120;52.890;6.040;2022-08-19T10:29:21;21.05;;;19.13;;
14088;SDS011;7120;52.890;6.040;2022-08-19T10:31:47;17.15;;;15.65;;
14088;SDS011;7120;52.890;6.040;2022-08-19T10:34:13;15.63;;;14.07;;
14088;SDS011;7120;52.890;6.040;2022-08-19T10:36:38;15.27;;;13.88;;
14088;SDS011;7120;52.890;6.040;2022-08-19T10:39:08;12.77;;;11.52;;
14088;SDS011;7120;52.890;6.040;2022-08-19T10:41:36;14.45;;;13.05;;
14088;SDS011;7120;52.890;6.040;2022-08-19T10:44:04;14.30;;;12.45;;
14088;SDS011;7120;52.890;6.040;2022-08-19T10:46:33;14.85;;;13.55;;
14088;SDS011;7120;52.890;6.040;2022-08-19T10:49:03;15.02;;;13.43;;
14088;SDS011;7120;52.890;6.040;2022-08-19T10:51:30;14.52;;;13.27;;
14088;SDS011;7120;52.890;6.040;2022-08-19T10:54:15;16.15;;;14.70;;
14088;SDS011;7120;52.890;6.040;2022-08-19T10:56:41;16.90;;;15.15;;
14088;SDS011;7120;52.890;6.040;2022-08-19T10:59:20;17.08;;;15.60;;
14088;SDS011;7120;52.890;6.040;2022-08-19T11:01:52;14.65;;;13.32;;
14088;SDS011;7120;52.890;6.040;2022-08-19T11:04:19;19.73;;;18.02;;
14088;SDS011;7120;52.890;6.040;2022-08-19T11:06:45;17.83;;;16.23;;
14088;SDS011;7120;52.890;6.040;2022-08-19T11:09:17;18.30;;;16.40;;
14088;SDS011;7120;52.890;6.040;2022-08-19T11:11:43;18.73;;;17.15;;
14088;SDS011;7120;52.890;6.040;2022-08-19T11:14:10;18.10;;;16.40;;
14088;SDS011;7120;52.890;6.040;2022-08-19T11:16:37;17.80;;;15.90;;
14088;SDS011;7120;52.890;6.040;2022-08-19T11:19:04;18.38;;;16.88;;
14088;SDS011;7120;52.890;6.040;2022-08-19T11:21:33;17.55;;;15.85;;
14088;SDS011;7120;52.890;6.040;2022-08-19T11:24:01;17.10;;;15.35;;
14088;SDS011;7120;52.890;6.040;2022-08-19T11:26:29;20.13;;;18.38;;
14088;SDS011;7120;52.890;6.040;2022-08-19T11:28:57;21.65;;;19.70;;
14088;SDS011;7120;52.890;6.040;2022-08-19T11:31:25;21.40;;;19.40;;
14088;SDS011;7120;52.890;6.040;2022-08-19T11:33:55;20.60;;;18.80;;
14088;SDS011;7120;52.890;6.040;2022-08-19T11:36:25;19.27;;;17.63;;
14088;SDS011;7120;52.890;6.040;2022-08-19T11:38:50;18.27;;;16.63;;
14088;SDS011;7120;52.890;6.040;2022-08-19T11:41:17;18.88;;;17.23;;
14088;SDS011;7120;52.890;6.040;2022-08-19T11:43:44;21.80;;;19.70;;
14088;SDS011;7120;52.890;6.040;2022-08-19T11:46:10;23.35;;;20.70;;
14088;SDS011;7120;52.890;6.040;2022-08-19T11:48:38;24.08;;;21.67;;
14088;SDS011;7120;52.890;6.040;2022-08-19T11:51:05;23.77;;;21.65;;
14088;SDS011;7120;52.890;6.040;2022-08-19T11:53:35;22.80;;;20.60;;
14088;SDS011;7120;52.890;6.040;2022-08-19T11:56:01;22.17;;;20.20;;
14088;SDS011;7120;52.890;6.040;2022-08-19T11:58:28;26.58;;;24.10;;
14088;SDS011;7120;52.890;6.040;2022-08-19T12:00:54;24.00;;;21.92;;
14088;SDS011;7120;52.890;6.040;2022-08-19T12:03:19;25.38;;;23.08;;
14088;SDS011;7120;52.890;6.040;2022-08-19T12:05:45;23.33;;;21.23;;
14088;SDS011;7120;52.890;6.040;2022-08-19T12:08:11;26.30;;;23.85;;
14088;SDS011;7120;52.890;6.040;2022-08-19T12:10:38;25.10;;;22.60;;
14088;SDS011;7120;52.890;6.040;2022-08-19T12:13:04;28.10;;;25.40;;
14088;SDS011;7120;52.890;6.040;2022-08-19T12:15:34;23.70;;;21.70;;
14088;SDS011;7120;52.890;6.040;2022-08-19T12:18:01;26.27;;;23.67;;
14088;SDS011;7120;52.890;6.040;2022-08-19T12:20:26;27.50;;;24.80;;
14088;SDS011;7120;52.890;6.040;2022-08-19T12:22:51;25.90;;;23.52;;
14088;SDS011;7120;52.890;6.040;2022-08-19T12:25:17;24.08;;;21.75;;
14088;SDS011;7120;52.890;6.040;2022-08-19T12:27:42;23.80;;;21.30;;
14088;SDS011;7120;52.890;6.040;2022-08-19T12:30:08;22.55;;;20.40;;
14088;SDS011;7120;52.890;6.040;2022-08-19T12:32:36;23.70;;;21.40;;
14088;SDS011;7120;52.890;6.040;2022-08-19T12:35:02;25.17;;;22.83;;
14088;SDS011;7120;52.890;6.040;2022-08-19T12:37:28;26.88;;;24.48;;
14088;SDS011;7120;52.890;6.040;2022-08-19T12:39:54;28.00;;;25.23;;
14088;SDS011;7120;52.890;6.040;2022-08-19T12:42:20;25.45;;;22.85;;
14088;SDS011;7120;52.890;6.040;2022-08-19T12:44:47;25.70;;;23.27;;
14088;SDS011;7120;52.890;6.040;2022-08-19T12:47:12;25.30;;;22.92;;
14088;SDS011;7120;52.890;6.040;2022-08-19T12:49:39;23.33;;;20.75;;
14088;SDS011;7120;52.890;6.040;2022-08-19T12:52:05;24.75;;;22.23;;
14088;SDS011;7120;52.890;6.040;2022-08-19T12:54:33;24.38;;;22.02;;
14088;SDS011;7120;52.890;6.040;2022-08-19T12:56:59;25.20;;;20.35;;
14088;SDS011;7120;52.890;6.040;2022-08-19T12:59:25;23.30;;;20.13;;
14088;SDS011;7120;52.890;6.040;2022-08-19T13:01:51;19.20;;;17.40;;
14088;SDS011;7120;52.890;6.040;2022-08-19T13:04:17;22.52;;;20.25;;
14088;SDS011;7120;52.890;6.040;2022-08-19T13:06:42;24.90;;;22.52;;
14088;SDS011;7120;52.890;6.040;2022-08-19T13:09:07;22.13;;;20.10;;
14088;SDS011;7120;52.890;6.040;2022-08-19T13:11:33;22.55;;;20.45;;
14088;SDS011;7120;52.890;6.040;2022-08-19T13:14:00;22.55;;;18.45;;
14088;SDS011;7120;52.890;6.040;2022-08-19T13:16:26;17.63;;;15.40;;
14088;SDS011;7120;52.890;6.040;2022-08-19T13:18:53;20.30;;;18.35;;
14088;SDS011;7120;52.890;6.040;2022-08-19T13:21:21;19.77;;;17.75;;
14088;SDS011;7120;52.890;6.040;2022-08-19T13:23:49;18.10;;;16.60;;
14088;SDS011;7120;52.890;6.040;2022-08-19T13:26:15;21.10;;;19.20;;
14088;SDS011;7120;52.890;6.040;2022-08-19T13:28:41;22.58;;;20.45;;
14088;SDS011;7120;52.890;6.040;2022-08-19T13:31:27;21.20;;;19.10;;
14088;SDS011;7120;52.890;6.040;2022-08-19T13:34:13;26.88;;;23.98;;
14088;SDS011;7120;52.890;6.040;2022-08-19T13:36:39;23.05;;;20.63;;
14088;SDS011;7120;52.890;6.040;2022-08-19T13:39:05;23.77;;;20.75;;
14088;SDS011;7120;52.890;6.040;2022-08-19T13:41:32;21.95;;;19.75;;
14088;SDS011;7120;52.890;6.040;2022-08-19T13:43:58;22.75;;;19.10;;
14088;SDS011;7120;52.890;6.040;2022-08-19T13:46:24;17.65;;;16.00;;
14088;SDS011;7120;52.890;6.040;2022-08-19T13:48:49;18.25;;;16.38;;
14088;SDS011;7120;52.890;6.040;2022-08-19T13:51:15;19.40;;;17.35;;
14088;SDS011;7120;52.890;6.040;2022-08-19T13:53:42;19.85;;;17.95;;
14088;SDS011;7120;52.890;6.040;2022-08-19T13:56:10;18.70;;;16.83;;
14088;SDS011;7120;52.890;6.040;2022-08-19T13:58:38;19.13;;;16.88;;
14088;SDS011;7120;52.890;6.040;2022-08-19T14:01:04;19.75;;;17.90;;
14088;SDS011;7120;52.890;6.040;2022-08-19T14:03:30;18.67;;;16.88;;
14088;SDS011;7120;52.890;6.040;2022-08-19T14:05:57;18.52;;;16.63;;
14088;SDS011;7120;52.890;6.040;2022-08-19T14:08:22;18.00;;;16.00;;
14088;SDS011;7120;52.890;6.040;2022-08-19T14:10:48;18.15;;;16.38;;
14088;SDS011;7120;52.890;6.040;2022-08-19T14:13:15;17.08;;;15.50;;
14088;SDS011;7120;52.890;6.040;2022-08-19T14:15:43;18.40;;;16.50;;
14088;SDS011;7120;52.890;6.040;2022-08-19T14:18:09;18.70;;;16.80;;
14088;SDS011;7120;52.890;6.040;2022-08-19T14:20:35;21.48;;;17.45;;
14088;SDS011;7120;52.890;6.040;2022-08-19T14:23:01;18.83;;;17.02;;
14088;SDS011;7120;52.890;6.040;2022-08-19T14:25:28;21.05;;;19.15;;
14088;SDS011;7120;52.890;6.040;2022-08-19T14:27:56;18.48;;;16.52;;
14088;SDS011;7120;52.890;6.040;2022-08-19T14:30:23;18.70;;;16.77;;
14088;SDS011;7120;52.890;6.040;2022-08-19T14:32:52;17.58;;;15.77;;
14088;SDS011;7120;52.890;6.040;2022-08-19T14:35:19;16.70;;;14.98;;
14088;SDS011;7120;52.890;6.040;2022-08-19T14:37:47;16.33;;;14.63;;
14088;SDS011;7120;52.890;6.040;2022-08-19T14:40:14;15.93;;;14.15;;
14088;SDS011;7120;52.890;6.040;2022-08-19T14:42:42;13.98;;;12.55;;
14088;SDS011;7120;52.890;6.040;2022-08-19T14:45:08;12.10;;;10.85;;